Time;durP1;ratioP1;P1;durP2;ratioP2;P2;SDS_P1;SDS_P2;PMS_P1;PMS_P2;Temp;Humidity;BMP_temperature;BMP_pressure;BME280_temperature;BME280_humidity;BME280_pressure;Samples;Min_cycle;Max_cycle;Signal;HPM_P1;HPM_P2
2023/04/05 00:01:27;;;;;;;2.10;2.00;;;0.80;94.20;;;;;;5114249;28;20222;-85
2023/04/05 00:03:58;;;;;;;2.47;2.28;;;0.80;94.30;;;;;;5114791;28;20287;-85
2023/04/05 00:06:31;;;;;;;3.53;2.85;;;0.80;94.20;;;;;;5114314;28;20199;-85
2023/04/05 00:09:11;;;;;;;1.77;1.67;;;0.80;94.30;;;;;;5114888;28;20286;-85
2023/04/05 00:11:48;;;;;;;2.67;2.47;;;0.70;96.10;;;;;;5114949;28;20228;-85
2023/04/05 00:14:18;;;;;;;4.20;2.70;;;0.70;94.60;;;;;;5114803;28;20281;-85
2023/04/05 00:16:54;;;;;;;3.72;2.53;;;0.70;95.20;;;;;;5114046;28;20202;-85
2023/04/05 00:19:25;;;;;;;2.90;2.47;;;0.70;94.90;;;;;;5113661;28;20217;-84
2023/04/05 00:21:54;;;;;;;3.38;3.08;;;0.60;94.60;;;;;;5114790;28;20215;-85
2023/04/05 00:24:40;;;;;;;2.65;2.45;;;0.60;95.60;;;;;;5114524;28;20207;-84
2023/04/05 00:27:09;;;;;;;2.43;2.23;;;0.60;95.50;;;;;;5114297;28;20199;-84
2023/04/05 00:29:46;;;;;;;3.80;2.50;;;0.50;95.80;;;;;;5114368;28;20202;-84
2023/04/05 00:32:20;;;;;;;2.80;2.53;;;0.50;95.50;;;;;;5094130;28;20224;-84
2023/04/05 00:34:50;;;;;;;2.63;2.43;;;0.50;95.60;;;;;;5104747;28;20280;-84
2023/04/05 00:37:19;;;;;;;2.20;2.00;;;0.40;95.70;;;;;;5093761;28;20204;-84
2023/04/05 00:39:49;;;;;;;2.77;2.57;;;0.40;95.70;;;;;;5110904;28;20200;-84
2023/04/05 00:42:18;;;;;;;2.93;2.60;;;0.40;96.80;;;;;;5113479;28;20254;-84
2023/04/05 00:44:46;;;;;;;3.17;2.43;;;0.40;98.50;;;;;;5113653;28;20208;-83
2023/04/05 00:47:17;;;;;;;2.63;2.43;;;0.40;96.10;;;;;;5113241;28;20257;-84
2023/04/05 00:49:46;;;;;;;3.53;2.70;;;0.40;98.00;;;;;;5113624;28;20265;-84
2023/04/05 00:52:18;;;;;;;3.50;2.97;;;0.40;96.70;;;;;;5114271;28;20235;-84
2023/04/05 00:54:47;;;;;;;4.33;3.03;;;0.40;97.10;;;;;;5114277;28;20231;-84
2023/04/05 00:57:20;;;;;;;4.23;2.80;;;0.30;97.30;;;;;;5113449;28;20196;-83
2023/04/05 00:59:50;;;;;;;2.53;2.33;;;0.30;97.90;;;;;;5114003;28;20214;-84
2023/04/05 01:02:28;;;;;;;4.60;2.47;;;0.30;97.00;;;;;;5113565;28;20219;-84
2023/04/05 01:05:02;;;;;;;3.53;2.60;;;0.20;97.40;;;;;;5113686;28;20207;-84
2023/04/05 01:07:43;;;;;;;2.33;2.13;;;0.20;99.50;;;;;;5113521;28;20207;-84
2023/04/05 01:10:15;;;;;;;3.57;2.43;;;0.20;98.30;;;;;;5113233;28;20207;-85
2023/04/05 01:12:44;;;;;;;3.23;2.87;;;0.20;97.60;;;;;;5113531;28;20303;-84
2023/04/05 01:15:17;;;;;;;3.50;2.97;;;0.20;97.40;;;;;;5113022;28;20195;-85
2023/04/05 01:17:47;;;;;;;2.80;2.60;;;0.10;98.40;;;;;;5113205;28;20213;-85
2023/04/05 01:20:16;;;;;;;2.47;2.27;;;0.10;99.40;;;;;;5113802;28;20196;-84
2023/04/05 01:23:07;;;;;;;2.50;2.30;;;0.10;98.70;;;;;;5113155;28;20223;-84
2023/04/05 01:25:58;;;;;;;2.20;2.00;;;0.10;98.30;;;;;;5112664;28;20194;-84
2023/04/05 01:28:51;;;;;;;2.83;2.47;;;0.10;98.40;;;;;;5113760;28;20291;-84
2023/04/05 01:31:29;;;;;;;4.90;2.27;;;0.00;98.10;;;;;;5113780;28;20288;-84
2023/04/05 01:34:03;;;;;;;2.50;2.30;;;0.00;99.20;;;;;;5114070;28;20196;-84
2023/04/05 01:36:40;;;;;;;1.97;1.87;;;0.00;99.00;;;;;;5104926;28;20222;-84
2023/04/05 01:39:11;;;;;;;2.90;2.70;;;0.00;99.20;;;;;;5113701;28;20214;-84
2023/04/05 01:41:40;;;;;;;4.70;2.63;;;0.00;98.80;;;;;;5114047;28;20256;-84
2023/04/05 01:44:13;;;;;;;7.37;2.67;;;0.00;98.50;;;;;;5113355;28;20220;-84
2023/04/05 01:46:46;;;;;;;4.60;2.70;;;0.00;98.90;;;;;;5113055;28;20203;-84
2023/04/05 01:49:15;;;;;;;3.10;2.50;;;0.00;99.00;;;;;;5113870;28;20255;-84
2023/04/05 01:51:45;;;;;;;2.37;2.17;;;0.00;99.90;;;;;;5113070;28;20249;-84
2023/04/05 01:54:13;;;;;;;3.57;2.53;;;-0.10;99.30;;;;;;5113640;28;20229;-85
2023/04/05 01:56:42;;;;;;;3.57;2.67;;;-0.10;99.30;;;;;;5112900;28;20287;-85
2023/04/05 01:59:13;;;;;;;3.37;2.57;;;-0.10;99.90;;;;;;5113772;28;20218;-84
2023/04/05 02:01:44;;;;;;;2.03;1.93;;;-0.10;99.10;;;;;;5113459;28;20223;-85
2023/04/05 02:04:12;;;;;;;2.20;2.00;;;-0.10;99.70;;;;;;5113234;28;20211;-84
2023/04/05 02:06:41;;;;;;;2.13;1.93;;;-0.10;99.90;;;;;;5113277;28;20199;-84
2023/04/05 02:09:10;;;;;;;4.53;2.50;;;-0.10;99.70;;;;;;5113218;28;20320;-84
2023/04/05 02:11:39;;;;;;;2.30;2.10;;;-0.10;99.90;;;;;;5113496;28;20227;-84
2023/04/05 02:14:09;;;;;;;2.93;2.50;;;-0.10;99.90;;;;;;5113459;28;20259;-84
2023/04/05 02:16:38;;;;;;;2.33;2.00;;;-0.10;99.90;;;;;;5113294;28;20204;-84
2023/04/05 02:19:08;;;;;;;2.93;2.63;;;-0.10;99.90;;;;;;5113140;28;20295;-84
2023/04/05 02:21:36;;;;;;;3.07;2.63;;;-0.20;99.90;;;;;;5113447;28;20307;-83
2023/04/05 02:24:05;;;;;;;4.27;2.63;;;-0.20;99.90;;;;;;5112917;28;20239;-83
2023/04/05 02:26:33;;;;;;;3.50;3.03;;;-0.20;99.90;;;;;;5112953;28;20223;-84
2023/04/05 02:29:01;;;;;;;4.40;2.67;;;-0.20;99.90;;;;;;5112795;28;20223;-84
2023/04/05 02:31:30;;;;;;;2.70;2.47;;;-0.20;99.90;;;;;;5113117;28;20314;-84
2023/04/05 02:33:59;;;;;;;2.57;2.20;;;-0.20;99.90;;;;;;5113466;28;20261;-84
2023/04/05 02:36:29;;;;;;;3.67;2.87;;;-0.20;99.90;;;;;;5113459;28;20271;-85
2023/04/05 02:38:58;;;;;;;3.47;2.77;;;-0.20;99.90;;;;;;5112418;28;20224;-84
2023/04/05 02:41:26;;;;;;;5.87;2.53;;;-0.20;99.90;;;;;;5113872;28;20248;-84
2023/04/05 02:43:55;;;;;;;3.67;2.93;;;-0.20;99.90;;;;;;5117303;28;20223;-85
2023/04/05 02:46:23;;;;;;;7.07;2.50;;;-0.20;99.90;;;;;;5116999;28;20247;-84
2023/04/05 02:48:51;;;;;;;3.77;2.67;;;-0.20;99.90;;;;;;5116137;28;20196;-84
2023/04/05 02:51:20;;;;;;;2.53;2.33;;;-0.20;99.90;;;;;;5116821;28;20318;-84
2023/04/05 02:53:50;;;;;;;2.17;1.97;;;-0.20;99.90;;;;;;5116794;28;20252;-84
2023/04/05 02:56:18;;;;;;;2.43;2.23;;;-0.20;99.90;;;;;;5116748;28;20204;-85
2023/04/05 02:58:48;;;;;;;3.33;2.57;;;-0.30;99.90;;;;;;5116136;28;20235;-85
2023/04/05 03:01:16;;;;;;;4.17;2.67;;;-0.20;99.90;;;;;;5116378;28;20228;-85
2023/04/05 03:03:44;;;;;;;3.10;2.80;;;-0.20;99.90;;;;;;5116828;28;20227;-84
2023/04/05 03:06:13;;;;;;;3.73;2.40;;;-0.30;99.90;;;;;;5116629;28;20200;-85
2023/04/05 03:08:42;;;;;;;2.63;2.43;;;-0.30;99.90;;;;;;5116031;28;20255;-84
2023/04/05 03:11:13;;;;;;;2.97;2.50;;;-0.30;99.90;;;;;;5116673;28;20289;-85
2023/04/05 03:13:41;;;;;;;3.10;2.40;;;-0.30;99.90;;;;;;5116735;28;20272;-85
2023/04/05 03:16:11;;;;;;;2.60;2.40;;;-0.30;99.90;;;;;;5116169;28;20250;-85
2023/04/05 03:18:39;;;;;;;2.63;2.13;;;-0.30;99.90;;;;;;5116009;28;20238;-85
2023/04/05 03:21:11;;;;;;;6.30;2.50;;;-0.30;99.90;;;;;;5116217;28;20287;-85
2023/04/05 03:23:39;;;;;;;3.27;2.60;;;-0.30;99.90;;;;;;5116303;28;20215;-85
2023/04/05 03:26:09;;;;;;;4.27;2.10;;;-0.30;99.90;;;;;;5116137;28;20220;-84
2023/04/05 03:28:44;;;;;;;4.57;2.43;;;-0.30;99.90;;;;;;5115777;28;20223;-85
2023/04/05 03:31:12;;;;;;;2.53;2.33;;;-0.30;99.90;;;;;;5116164;28;20235;-85
2023/04/05 03:33:41;;;;;;;7.13;2.43;;;-0.30;99.90;;;;;;5116447;28;20203;-85
2023/04/05 03:36:15;;;;;;;2.73;1.93;;;-0.30;99.90;;;;;;5115780;28;20206;-85
2023/04/05 03:38:45;;;;;;;4.40;2.80;;;-0.30;99.90;;;;;;5115801;28;20200;-85
2023/04/05 03:41:57;;;;;;;;;;;;;;;;;;;;;
2023/04/05 03:44:39;;;;;;;7.17;3.00;;;-0.30;99.90;;;;;;5105929;28;20211;-85
2023/04/05 03:47:12;;;;;;;2.97;2.27;;;-0.30;99.90;;;;;;5115522;28;20200;-84
2023/04/05 03:49:42;;;;;;;2.20;2.00;;;-0.30;99.90;;;;;;5116252;28;20261;-85
2023/04/05 03:52:11;;;;;;;4.17;2.73;;;-0.40;99.90;;;;;;5115635;28;20220;-84
2023/04/05 03:54:39;;;;;;;2.60;2.40;;;-0.30;99.90;;;;;;5115759;28;20241;-85
2023/04/05 03:57:08;;;;;;;3.53;2.60;;;-0.40;99.90;;;;;;5115301;28;20267;-84
2023/04/05 03:59:37;;;;;;;2.60;2.40;;;-0.40;99.90;;;;;;5115556;28;20200;-85
2023/04/05 04:02:06;;;;;;;2.37;2.17;;;-0.40;99.90;;;;;;5115520;28;20244;-85
2023/04/05 04:04:35;;;;;;;2.17;1.97;;;-0.40;99.90;;;;;;5115442;28;20218;-85
2023/04/05 04:07:03;;;;;;;24.43;2.07;;;-0.40;99.90;;;;;;5114979;28;20246;-85
2023/04/05 04:09:32;;;;;;;3.30;2.57;;;-0.40;99.90;;;;;;5115360;28;20231;-85
2023/04/05 04:12:00;;;;;;;2.50;2.30;;;-0.40;99.90;;;;;;5115529;28;20219;-85
2023/04/05 04:14:28;;;;;;;2.17;1.97;;;-0.50;99.90;;;;;;5114978;28;20249;-85
2023/04/05 04:16:56;;;;;;;2.47;2.27;;;-0.40;99.90;;;;;;5114709;28;20258;-85
2023/04/05 04:19:26;;;;;;;2.40;2.20;;;-0.40;99.90;;;;;;5115832;28;20199;-85
2023/04/05 04:21:55;;;;;;;4.70;2.47;;;-0.50;99.90;;;;;;5115369;28;20219;-85
2023/04/05 04:24:25;;;;;;;3.27;2.33;;;-0.40;99.90;;;;;;5115187;28;20247;-85
2023/04/05 04:26:54;;;;;;;2.53;2.10;;;-0.40;99.90;;;;;;5115034;28;20204;-85
2023/04/05 04:29:29;;;;;;;1.83;1.73;;;-0.40;99.90;;;;;;5114845;28;20286;-85
2023/04/05 04:31:59;;;;;;;3.50;2.50;;;-0.40;99.90;;;;;;5115588;28;20250;-85
2023/04/05 04:34:33;;;;;;;2.60;2.40;;;-0.40;99.90;;;;;;5111140;28;20203;-85
2023/04/05 04:37:06;;;;;;;6.47;2.80;;;-0.40;99.90;;;;;;5099251;28;20296;-85
2023/04/05 04:39:38;;;;;;;3.23;2.40;;;-0.40;99.90;;;;;;5114808;28;20292;-85
2023/04/05 04:42:09;;;;;;;3.03;2.30;;;-0.40;99.90;;;;;;5114647;28;20228;-86
2023/04/05 04:44:41;;;;;;;2.97;2.37;;;-0.50;99.90;;;;;;5114710;28;20214;-85
2023/04/05 04:47:12;;;;;;;4.47;2.80;;;-0.40;99.90;;;;;;5114413;28;20203;-85
2023/04/05 04:49:43;;;;;;;3.30;2.93;;;-0.40;99.90;;;;;;5114662;28;20241;-86
2023/04/05 04:52:12;;;;;;;2.13;1.93;;;-0.50;99.90;;;;;;5114903;28;20280;-85
2023/04/05 04:54:41;;;;;;;2.00;1.80;;;-0.40;99.90;;;;;;5114612;28;20192;-85
2023/04/05 04:57:10;;;;;;;2.80;2.40;;;-0.50;99.90;;;;;;5114297;28;20281;-85
2023/04/05 04:59:38;;;;;;;3.90;2.30;;;-0.40;99.90;;;;;;5114929;28;20268;-85
2023/04/05 05:02:07;;;;;;;3.50;3.10;;;-0.40;99.90;;;;;;5114374;28;20231;-85
2023/04/05 05:04:36;;;;;;;3.00;2.23;;;-0.40;99.90;;;;;;5113703;28;20227;-85
2023/04/05 05:07:06;;;;;;;2.77;2.57;;;-0.40;99.90;;;;;;5114104;28;20200;-85
2023/04/05 05:09:34;;;;;;;2.40;2.20;;;-0.30;99.90;;;;;;5114231;28;20234;-88
2023/04/05 05:12:03;;;;;;;2.50;2.10;;;-0.30;99.90;;;;;;5114596;28;20310;-85
2023/04/05 05:14:31;;;;;;;2.70;2.30;;;-0.30;99.90;;;;;;5113904;28;20191;-85
2023/04/05 05:17:00;;;;;;;2.63;2.30;;;-0.30;99.90;;;;;;5113912;28;20225;-85
2023/04/05 05:19:29;;;;;;;2.70;2.50;;;-0.20;99.90;;;;;;5114109;28;20210;-85
2023/04/05 05:21:58;;;;;;;2.53;2.33;;;-0.20;99.90;;;;;;5114073;28;20216;-85
2023/04/05 05:24:28;;;;;;;2.20;2.00;;;-0.10;99.90;;;;;;5114290;28;20276;-85
2023/04/05 05:26:56;;;;;;;3.43;2.77;;;-0.10;99.90;;;;;;5113746;28;20207;-85
2023/04/05 05:29:25;;;;;;;2.93;2.30;;;0.00;99.90;;;;;;5114462;28;20294;-85
2023/04/05 05:31:56;;;;;;;3.10;2.60;;;0.10;99.90;;;;;;5114081;28;20227;-85
2023/04/05 05:34:30;;;;;;;2.50;2.30;;;0.10;99.90;;;;;;5113958;28;20245;-85
2023/04/05 05:37:02;;;;;;;3.43;2.50;;;0.20;99.90;;;;;;5112945;28;20220;-86
2023/04/05 05:39:35;;;;;;;3.73;2.60;;;0.20;99.90;;;;;;5097232;28;20211;-86
2023/04/05 05:42:06;;;;;;;4.10;2.20;;;0.20;99.70;;;;;;5103556;28;20235;-86
2023/04/05 05:44:35;;;;;;;5.60;2.17;;;0.30;99.90;;;;;;5113749;28;20226;-86
2023/04/05 05:47:05;;;;;;;5.70;2.72;;;0.40;99.40;;;;;;5113374;28;20299;-86
2023/04/05 05:49:40;;;;;;;2.53;2.00;;;0.40;99.90;;;;;;5104949;28;20265;-86
2023/04/05 05:52:11;;;;;;;2.23;2.00;;;0.50;99.70;;;;;;5093658;28;20242;-86
2023/04/05 05:54:43;;;;;;;2.43;2.23;;;0.50;99.00;;;;;;5107275;28;20259;-86
2023/04/05 05:57:24;;;;;;;2.63;2.03;;;0.60;98.70;;;;;;5112295;28;20200;-84
2023/04/05 05:59:59;;;;;;;1.73;1.63;;;0.70;99.80;;;;;;5111741;28;20215;-85
2023/04/05 06:02:33;;;;;;;2.30;2.10;;;0.70;98.70;;;;;;5113037;28;20215;-85
2023/04/05 06:05:47;;;;;;;2.20;2.00;;;0.80;99.40;;;;;;5112857;28;20218;-85
2023/04/05 06:08:20;;;;;;;4.80;2.10;;;0.90;98.10;;;;;;5111353;28;20203;-85
2023/04/05 06:11:07;;;;;;;2.67;2.30;;;1.00;98.20;;;;;;5009255;28;20322;-85
2023/04/05 06:16:53;;;;;;;2.33;2.13;;;1.00;97.20;;;;;;5025741;28;20208;-85
2023/04/05 06:19:43;;;;;;;2.42;2.17;;;1.10;97.30;;;;;;5024454;28;20285;-85
2023/04/05 06:22:39;;;;;;;2.42;2.20;;;1.10;96.50;;;;;;5033839;28;20272;-85
2023/04/05 06:28:46;;;;;;;2.37;2.03;;;1.30;96.50;;;;;;5033445;28;20209;-85
2023/04/05 06:31:33;;;;;;;2.93;2.00;;;1.40;98.10;;;;;;4973860;28;20224;-85
2023/04/05 06:34:01;;;;;;;1.63;1.52;;;1.50;96.00;;;;;;4995038;28;20204;-85
2023/04/05 06:36:34;;;;;;;2.78;1.85;;;1.50;95.90;;;;;;4994375;28;20200;-85
2023/04/05 06:39:21;;;;;;;2.13;1.98;;;1.70;95.50;;;;;;5011599;28;20233;-85
2023/04/05 06:45:52;;;;;;;4.55;2.25;;;1.90;95.10;;;;;;5013437;28;20231;-85
2023/04/05 06:54:12;;;;;;;1.77;1.67;;;2.40;94.90;;;;;;5068272;28;20210;-85
2023/04/05 06:56:58;;;;;;;2.78;2.15;;;2.50;94.70;;;;;;5112893;28;20207;-85
2023/04/05 07:02:32;;;;;;;2.30;2.10;;;2.40;95.70;;;;;;5091836;22;20239;-83
2023/04/05 07:05:05;;;;;;;2.55;2.35;;;2.40;93.20;;;;;;5087548;28;20197;-83
2023/04/05 07:10:22;;;;;;;2.10;1.85;;;2.50;93.40;;;;;;5077306;28;20321;-87
2023/04/05 07:13:07;;;;;;;4.13;2.25;;;2.50;93.30;;;;;;5063348;28;20201;-87
2023/04/05 07:16:23;;;;;;;2.17;1.98;;;2.50;93.90;;;;;;5042895;28;20233;-87
2023/04/05 07:19:27;;;;;;;2.10;1.90;;;2.60;93.20;;;;;;5064376;28;20220;-87
2023/04/05 07:22:13;;;;;;;2.88;2.03;;;2.70;93.00;;;;;;5058630;28;20225;-87
2023/04/05 07:24:58;;;;;;;2.08;1.88;;;2.70;93.80;;;;;;5042805;28;20206;-87
2023/04/05 07:27:30;;;;;;;2.38;2.17;;;2.80;93.40;;;;;;5066407;28;20210;-87
2023/04/05 07:30:19;;;;;;;2.30;1.95;;;2.80;92.90;;;;;;5070928;28;20217;-86
2023/04/05 07:33:01;;;;;;;2.75;2.25;;;2.90;92.90;;;;;;5072774;28;20233;-86
2023/04/05 07:35:31;;;;;;;2.47;2.28;;;3.10;93.10;;;;;;5066667;28;20217;-86
2023/04/05 07:38:02;;;;;;;2.17;2.00;;;3.30;92.70;;;;;;5073578;28;20209;-86
2023/04/05 07:40:35;;;;;;;3.55;2.33;;;3.40;93.10;;;;;;5071928;28;20212;-88
2023/04/05 07:43:04;;;;;;;3.15;2.50;;;3.40;91.80;;;;;;5072233;28;20205;-86
2023/04/05 07:45:38;;;;;;;2.22;2.03;;;3.50;91.90;;;;;;5068171;28;20229;-84
2023/04/05 07:48:10;;;;;;;2.35;1.63;;;3.60;91.00;;;;;;5072032;28;20213;-86
2023/04/05 07:50:39;;;;;;;2.67;2.05;;;3.70;91.20;;;;;;5071693;28;20275;-86
2023/04/05 07:53:11;;;;;;;3.05;1.98;;;3.80;90.80;;;;;;5070786;28;20209;-86
2023/04/05 07:55:43;;;;;;;1.98;1.88;;;3.90;90.40;;;;;;5054677;28;20209;-86
2023/04/05 07:58:15;;;;;;;1.90;1.80;;;3.90;90.80;;;;;;5052908;28;20206;-86
2023/04/05 08:00:59;;;;;;;1.60;1.50;;;4.00;90.90;;;;;;5006400;28;1339507;-84
2023/04/05 08:03:33;;;;;;;2.67;2.22;;;4.00;90.00;;;;;;5067172;28;20213;-88
2023/04/05 08:06:17;;;;;;;3.15;1.95;;;3.90;91.20;;;;;;5074339;28;20305;-86
2023/04/05 08:08:54;;;;;;;2.47;2.28;;;4.00;90.10;;;;;;5070250;28;20270;-85
2023/04/05 08:11:35;;;;;;;2.58;2.00;;;4.00;90.00;;;;;;5054038;28;20283;-84
2023/04/05 08:14:05;;;;;;;1.88;1.75;;;4.20;90.70;;;;;;5053554;28;20210;-84
2023/04/05 08:16:34;;;;;;;3.38;2.35;;;4.30;88.20;;;;;;5052690;28;20243;-85
2023/04/05 08:19:08;;;;;;;1.60;1.50;;;4.40;88.50;;;;;;5053619;28;20212;-84
2023/04/05 08:21:43;;;;;;;1.60;1.50;;;4.70;88.80;;;;;;5062739;28;20295;-86
2023/04/05 08:24:13;;;;;;;2.85;2.58;;;4.80;87.40;;;;;;5073842;28;20207;-86
2023/04/05 08:26:46;;;;;;;7.88;2.13;;;5.00;86.90;;;;;;5073696;28;20221;-86
2023/04/05 08:29:17;;;;;;;2.10;1.90;;;5.20;88.80;;;;;;5072560;28;20283;-86
2023/04/05 08:32:01;;;;;;;2.33;2.13;;;5.40;85.00;;;;;;5073833;28;20221;-87
2023/04/05 08:34:32;;;;;;;2.63;2.17;;;5.80;86.80;;;;;;5069554;28;20200;-86
2023/04/05 08:37:04;;;;;;;2.10;1.80;;;6.30;84.00;;;;;;5053192;28;20209;-86
2023/04/05 08:39:37;;;;;;;3.47;2.15;;;6.80;83.70;;;;;;5053107;28;20208;-87
2023/04/05 08:42:19;;;;;;;1.85;1.70;;;7.30;80.20;;;;;;5062196;28;20228;-86
2023/04/05 08:44:57;;;;;;;2.05;1.85;;;7.50;78.50;;;;;;5073431;28;20317;-87
2023/04/05 08:47:39;;;;;;;2.63;2.42;;;8.10;77.10;;;;;;5072576;28;20225;-87
2023/04/05 08:50:13;;;;;;;5.32;2.97;;;8.70;74.30;;;;;;5055870;28;20205;-87
2023/04/05 08:52:48;;;;;;;2.28;2.08;;;9.00;73.90;;;;;;5052844;28;20278;-87
2023/04/05 08:55:28;;;;;;;6.85;2.22;;;9.70;72.30;;;;;;5053269;28;20212;-87
2023/04/05 08:57:59;;;;;;;2.17;2.03;;;10.00;69.90;;;;;;5053076;28;20221;-83
2023/04/05 09:00:33;;;;;;;2.22;1.90;;;10.10;67.30;;;;;;5052922;28;20259;-83
2023/04/05 09:03:02;;;;;;;2.22;2.10;;;10.40;67.20;;;;;;5052770;28;20270;-85
2023/04/05 09:05:36;;;;;;;2.40;1.92;;;10.80;66.20;;;;;;5070718;28;20225;-86
2023/04/05 09:08:06;;;;;;;2.72;2.42;;;11.00;66.60;;;;;;5059971;28;20222;-84
2023/04/05 09:10:36;;;;;;;13.82;1.88;;;10.90;63.90;;;;;;5072690;28;20240;-84
2023/04/05 09:13:05;;;;;;;2.95;2.00;;;10.30;62.70;;;;;;5072813;28;20278;-84
2023/04/05 09:15:38;;;;;;;7.45;2.63;;;10.30;62.30;;;;;;5072513;28;20229;-84
2023/04/05 09:18:06;;;;;;;2.75;1.98;;;10.70;63.70;;;;;;5071363;28;20201;-84
2023/04/05 09:20:57;;;;;;;3.50;2.63;;;11.00;62.60;;;;;;5072843;28;20217;-84
2023/04/05 09:23:25;;;;;;;5.22;3.10;;;11.10;61.10;;;;;;5069382;28;20292;-82
2023/04/05 09:25:57;;;;;;;2.90;2.15;;;11.60;61.80;;;;;;5062694;28;20244;-83
2023/04/05 09:28:49;;;;;;;2.10;1.90;;;11.20;60.20;;;;;;5063686;28;20205;-83
2023/04/05 09:31:34;;;;;;;3.78;2.80;;;11.30;60.20;;;;;;5070491;28;20221;-85
2023/04/05 09:34:04;;;;;;;2.45;2.22;;;11.70;60.00;;;;;;5071810;28;20201;-85
2023/04/05 09:36:33;;;;;;;2.28;2.05;;;11.30;61.00;;;;;;5052474;28;20205;-83
2023/04/05 09:39:06;;;;;;;3.65;2.15;;;10.40;59.30;;;;;;5058929;28;20250;-83
2023/04/05 09:41:38;;;;;;;3.83;2.38;;;10.00;63.60;;;;;;5064379;28;20222;-85
2023/04/05 09:44:06;;;;;;;2.90;2.55;;;9.80;62.00;;;;;;5060008;28;20262;-84
2023/04/05 09:46:36;;;;;;;1.95;1.83;;;9.40;62.30;;;;;;5066753;28;20255;-86
2023/04/05 09:49:08;;;;;;;2.13;1.98;;;9.20;64.90;;;;;;5072046;28;20258;-84
2023/04/05 09:51:38;;;;;;;2.20;2.00;;;9.20;64.90;;;;;;5052355;28;20253;-84
2023/04/05 09:54:08;;;;;;;2.80;2.17;;;9.80;65.30;;;;;;5052276;28;20303;-84
2023/04/05 09:56:40;;;;;;;1.88;1.77;;;10.60;63.00;;;;;;5060446;28;20292;-86
2023/04/05 09:59:10;;;;;;;3.28;2.20;;;11.30;62.00;;;;;;5058720;28;20301;-86
2023/04/05 10:01:39;;;;;;;2.60;2.40;;;11.60;62.20;;;;;;5069620;28;20240;-86
2023/04/05 10:04:09;;;;;;;2.78;2.40;;;11.50;57.20;;;;;;5052340;28;20213;-86
2023/04/05 10:06:39;;;;;;;9.45;2.30;;;11.20;58.40;;;;;;5051970;28;20205;-86
2023/04/05 10:09:10;;;;;;;3.97;2.88;;;10.30;58.20;;;;;;5051777;28;20252;-86
2023/04/05 10:11:42;;;;;;;2.40;2.05;;;9.90;62.00;;;;;;5058681;28;20225;-85
2023/04/05 10:14:11;;;;;;;5.30;2.40;;;9.60;61.50;;;;;;5072172;28;20211;-86
2023/04/05 10:16:49;;;;;;;2.65;1.88;;;9.40;61.00;;;;;;5072299;28;20213;-85
2023/04/05 10:19:27;;;;;;;3.17;2.33;;;9.70;62.50;;;;;;5071803;28;20266;-85
2023/04/05 10:21:58;;;;;;;2.55;2.13;;;9.60;61.10;;;;;;5071716;28;20225;-86
2023/04/05 10:24:35;;;;;;;2.00;1.90;;;9.80;60.70;;;;;;5063758;28;20215;-87
2023/04/05 10:27:12;;;;;;;2.47;2.00;;;9.90;59.70;;;;;;5070938;28;20213;-86
2023/04/05 10:29:50;;;;;;;4.30;2.47;;;10.00;60.30;;;;;;5070013;28;20200;-86
2023/04/05 10:32:27;;;;;;;4.15;2.15;;;10.40;57.30;;;;;;5061690;28;20221;-85
2023/04/05 10:35:06;;;;;;;1.88;1.77;;;11.10;58.80;;;;;;5056787;28;20226;-85
2023/04/05 10:37:51;;;;;;;2.83;2.05;;;11.80;55.20;;;;;;5052856;28;20205;-84
2023/04/05 10:40:21;;;;;;;2.25;2.05;;;11.80;56.00;;;;;;5054314;28;20231;-84
2023/04/05 10:42:52;;;;;;;3.58;2.35;;;11.60;55.80;;;;;;5062773;28;20200;-84
2023/04/05 10:45:21;;;;;;;2.70;2.35;;;11.60;55.20;;;;;;5071829;28;20209;-84
2023/04/05 10:47:55;;;;;;;2.45;2.25;;;11.10;56.10;;;;;;5071041;28;20311;-84
2023/04/05 10:50:26;;;;;;;2.10;1.90;;;10.90;57.60;;;;;;5060054;28;20206;-84
2023/04/05 10:52:56;;;;;;;2.88;2.53;;;10.10;56.70;;;;;;5063139;28;20205;-84
2023/04/05 10:55:27;;;;;;;6.65;2.45;;;9.50;59.30;;;;;;5052785;28;20213;-83
2023/04/05 10:57:58;;;;;;;3.65;1.92;;;9.20;60.60;;;;;;5055133;28;20224;-84
2023/04/05 11:00:27;;;;;;;2.30;1.98;;;8.90;60.40;;;;;;5061538;28;20206;-84
2023/04/05 11:02:56;;;;;;;1.92;1.75;;;8.70;59.90;;;;;;5060643;28;20265;-84
2023/04/05 11:05:36;;;;;;;2.55;2.10;;;8.50;62.40;;;;;;5067965;28;20231;-84
2023/04/05 11:08:09;;;;;;;2.10;1.90;;;8.50;62.60;;;;;;5070861;28;20327;-84
2023/04/05 11:10:44;;;;;;;2.78;2.53;;;9.10;59.60;;;;;;5075418;28;20197;-84
2023/04/05 11:13:14;;;;;;;2.72;2.17;;;9.70;59.40;;;;;;5073157;28;20208;-84
2023/04/05 11:15:43;;;;;;;2.30;2.10;;;10.20;58.30;;;;;;5075021;28;20254;-84
2023/04/05 11:18:12;;;;;;;2.97;2.33;;;10.40;57.00;;;;;;5073142;28;20209;-84
2023/04/05 11:20:46;;;;;;;2.25;2.05;;;10.20;57.70;;;;;;5058561;28;20202;-84
2023/04/05 11:23:17;;;;;;;2.53;2.33;;;10.00;57.80;;;;;;5056602;28;20206;-84
2023/04/05 11:25:52;;;;;;;2.42;1.95;;;9.80;58.90;;;;;;5055044;28;20205;-84
2023/04/05 11:28:30;;;;;;;2.50;2.30;;;9.60;60.00;;;;;;5054444;28;20217;-84
2023/04/05 11:31:12;;;;;;;1.73;1.63;;;9.30;59.60;;;;;;5055076;28;20218;-84
2023/04/05 11:33:59;;;;;;;1.95;1.85;;;9.40;61.00;;;;;;5054782;28;20222;-84
2023/04/05 11:36:44;;;;;;;2.03;1.88;;;9.60;59.20;;;;;;5054722;28;20284;-84
2023/04/05 11:39:26;;;;;;;2.30;2.10;;;9.60;58.70;;;;;;5054765;28;20206;-84
2023/04/05 11:42:00;;;;;;;1.67;1.58;;;9.70;57.50;;;;;;5067256;28;20435;-83
2023/04/05 11:44:40;;;;;;;2.33;1.90;;;10.20;57.40;;;;;;5054864;28;20240;-83
2023/04/05 11:47:10;;;;;;;2.08;1.88;;;10.90;56.70;;;;;;5061095;28;20201;-84
2023/04/05 11:49:40;;;;;;;2.30;2.10;;;11.80;53.80;;;;;;5086804;28;20232;-86
2023/04/05 11:52:14;;;;;;;2.15;1.95;;;11.80;52.90;;;;;;5094677;28;20232;-82
2023/04/05 11:54:47;;;;;;;2.92;1.83;;;11.50;53.50;;;;;;5095277;28;20204;-82
2023/04/05 11:57:20;;;;;;;2.17;1.98;;;11.30;53.30;;;;;;5076121;28;20228;-82
2023/04/05 11:59:52;;;;;;;2.38;2.10;;;10.80;53.50;;;;;;5073878;28;20200;-82
2023/04/05 12:02:21;;;;;;;2.47;2.00;;;10.50;53.80;;;;;;5070189;28;20241;-82
2023/04/05 12:04:55;;;;;;;2.97;2.70;;;10.30;53.70;;;;;;5071533;28;20237;-82
2023/04/05 12:07:28;;;;;;;2.08;1.88;;;10.20;55.80;;;;;;5068243;28;20211;-82
2023/04/05 12:10:08;;;;;;;2.58;2.22;;;9.90;55.20;;;;;;5061991;28;20212;-85
2023/04/05 12:12:38;;;;;;;2.00;1.85;;;9.70;55.60;;;;;;5063854;28;20235;-85
2023/04/05 12:15:12;;;;;;;2.45;2.25;;;9.80;56.70;;;;;;5073389;28;20213;-85
2023/04/05 12:17:49;;;;;;;4.22;2.65;;;10.70;55.60;;;;;;5074582;28;20220;-85
2023/04/05 12:20:20;;;;;;;2.25;1.67;;;11.10;55.00;;;;;;5074840;28;20213;-85
2023/04/05 12:22:50;;;;;;;2.10;1.98;;;11.30;53.50;;;;;;5073775;28;20271;-85
2023/04/05 12:25:20;;;;;;;1.67;1.58;;;11.40;52.80;;;;;;5068961;28;20215;-84
2023/04/05 12:27:48;;;;;;;2.60;2.15;;;11.30;52.10;;;;;;5070505;28;20201;-89
2023/04/05 12:30:20;;;;;;;2.08;1.90;;;11.40;54.20;;;;;;5055923;28;20233;-82
2023/04/05 12:32:51;;;;;;;3.38;1.90;;;11.00;52.50;;;;;;5053755;28;20263;-82
2023/04/05 12:35:23;;;;;;;1.80;1.70;;;10.90;53.30;;;;;;5053533;28;20209;-83
2023/04/05 12:37:51;;;;;;;2.30;2.08;;;11.00;52.90;;;;;;5055375;28;20205;-88
2023/04/05 12:40:23;;;;;;;1.95;1.85;;;11.80;52.90;;;;;;5073352;28;20208;-83
2023/04/05 12:42:52;;;;;;;2.25;2.05;;;11.90;51.60;;;;;;5073867;28;20211;-83
2023/04/05 12:45:23;;;;;;;2.80;2.42;;;11.60;51.00;;;;;;5066032;28;20200;-83
2023/04/05 12:47:58;;;;;;;1.95;1.73;;;11.50;51.90;;;;;;5066320;28;20209;-85
2023/04/05 12:50:29;;;;;;;2.63;2.20;;;11.40;50.90;;;;;;5060984;28;20201;-82
2023/04/05 12:52:58;;;;;;;2.88;2.25;;;10.90;51.70;;;;;;5056744;28;20202;-83
2023/04/05 12:55:28;;;;;;;1.75;1.65;;;11.00;52.20;;;;;;5066117;28;20235;-83
2023/04/05 12:57:59;;;;;;;1.65;1.55;;;11.50;52.30;;;;;;5072763;28;20291;-89
2023/04/05 13:00:31;;;;;;;2.22;1.80;;;12.00;53.00;;;;;;5065330;28;20194;-88
2023/04/05 13:03:01;;;;;;;2.30;1.95;;;12.10;53.00;;;;;;5063421;28;20201;-90
2023/04/05 13:05:31;;;;;;;2.45;2.15;;;12.60;53.60;;;;;;5053761;28;20208;-83
2023/04/05 13:07:59;;;;;;;2.13;1.85;;;13.00;53.00;;;;;;5052660;28;20240;-83
2023/04/05 13:10:27;;;;;;;2.88;2.20;;;12.70;51.50;;;;;;5053518;28;20212;-83
2023/04/05 13:12:56;;;;;;;3.35;1.85;;;12.30;50.20;;;;;;5053487;28;20304;-83
2023/04/05 13:15:25;;;;;;;1.60;1.50;;;11.90;51.60;;;;;;5057036;28;20200;-87
2023/04/05 13:17:58;;;;;;;3.08;2.78;;;11.60;50.50;;;;;;5073120;28;20266;-90
2023/04/05 13:20:27;;;;;;;2.08;1.88;;;11.20;50.90;;;;;;5071465;28;20205;-85
2023/04/05 13:22:55;;;;;;;4.40;1.98;;;11.40;52.30;;;;;;5062086;28;20200;-83
2023/04/05 13:25:23;;;;;;;2.17;1.98;;;11.90;51.70;;;;;;5059532;28;20206;-83
2023/04/05 13:27:52;;;;;;;2.47;2.13;;;11.80;50.30;;;;;;5054785;28;20209;-83
2023/04/05 13:30:20;;;;;;;1.98;1.77;;;11.30;50.20;;;;;;5063267;28;20218;-84
2023/04/05 13:32:49;;;;;;;1.58;1.48;;;10.90;51.00;;;;;;5053048;28;20210;-85
2023/04/05 13:35:19;;;;;;;10.90;1.88;;;10.50;51.30;;;;;;5082092;28;20201;-84
2023/04/05 13:37:48;;;;;;;2.03;1.90;;;10.20;52.20;;;;;;5092448;28;20208;-83
2023/04/05 13:40:17;;;;;;;2.20;2.00;;;10.00;52.00;;;;;;5093166;28;20196;-84
2023/04/05 13:42:45;;;;;;;2.40;2.20;;;10.10;54.80;;;;;;5064443;28;20225;-84
2023/04/05 13:45:13;;;;;;;3.83;2.15;;;9.90;54.30;;;;;;5065831;28;20197;-85